createdAt,value
2017-09-10T00:01:21.094Z,3.23
2017-09-10T00:03:49.485Z,3.70
2017-09-10T00:06:17.076Z,2.97
2017-09-10T00:08:44.693Z,2.83
2017-09-10T00:11:13.068Z,3.47
2017-09-10T00:13:41.459Z,3.47
2017-09-10T00:16:09.053Z,3.03
2017-09-10T00:18:36.699Z,3.90
2017-09-10T00:21:04.301Z,7.13
2017-09-10T00:23:31.937Z,3.10
2017-09-10T00:25:59.515Z,4.90
2017-09-10T00:28:27.136Z,6.43
2017-09-10T00:30:54.727Z,3.53
2017-09-10T00:33:22.350Z,5.93
2017-09-10T00:35:50.716Z,3.27
2017-09-10T00:38:19.105Z,5.60
2017-09-10T00:40:46.700Z,8.73
2017-09-10T00:43:14.298Z,5.77
2017-09-10T00:45:41.913Z,4.27
2017-09-10T00:48:09.530Z,4.30
2017-09-10T00:50:37.916Z,4.03
2017-09-10T00:53:06.286Z,4.20
2017-09-10T00:55:35.486Z,3.10
2017-09-10T00:58:03.847Z,2.77
2017-09-10T01:00:31.470Z,2.90
2017-09-10T01:02:59.059Z,4.20
2017-09-10T01:05:26.689Z,3.97
2017-09-10T01:07:54.285Z,4.23
2017-09-10T01:10:21.897Z,4.43
2017-09-10T01:12:49.504Z,6.70
2017-09-10T01:15:17.138Z,5.80
2017-09-10T01:17:44.732Z,4.70
2017-09-10T01:20:12.376Z,5.30
2017-09-10T01:22:39.960Z,4.87
2017-09-10T01:25:08.348Z,4.43
2017-09-10T01:27:37.656Z,3.30
2017-09-10T01:30:06.019Z,3.60
2017-09-10T01:32:34.409Z,3.57
2017-09-10T01:35:02.765Z,3.10
2017-09-10T01:37:30.397Z,4.83
2017-09-10T01:39:58.003Z,3.10
2017-09-10T01:42:26.397Z,6.03
2017-09-10T01:44:53.996Z,5.13
2017-09-10T01:47:21.612Z,6.07
2017-09-10T01:49:49.989Z,4.33
2017-09-10T01:52:18.389Z,4.40
2017-09-10T01:54:45.993Z,5.27
2017-09-10T01:57:13.604Z,5.00
2017-09-10T01:59:41.198Z,6.50
2017-09-10T02:02:08.834Z,13.20
2017-09-10T02:04:36.420Z,5.07
2017-09-10T02:07:04.057Z,6.73
2017-09-10T02:09:31.653Z,5.77
2017-09-10T02:11:59.267Z,4.10
2017-09-10T02:14:26.860Z,5.60
2017-09-10T02:16:54.487Z,4.00
2017-09-10T02:19:22.845Z,6.10
2017-09-10T02:21:51.237Z,4.07
2017-09-10T02:24:19.606Z,5.13
2017-09-10T02:26:47.963Z,4.60
2017-09-10T02:29:15.575Z,4.43
2017-09-10T02:31:43.193Z,5.40
2017-09-10T02:34:10.828Z,4.10
2017-09-10T02:36:38.427Z,7.53
2017-09-10T02:39:06.808Z,3.93
2017-09-10T02:41:34.414Z,7.00
2017-09-10T02:44:02.034Z,6.27
2017-09-10T02:46:30.406Z,2.70
2017-09-10T02:48:58.802Z,4.13
2017-09-10T02:51:26.419Z,4.23
2017-09-10T02:53:54.041Z,4.33
2017-09-10T02:56:21.631Z,5.40
2017-09-10T02:58:49.256Z,3.10
2017-09-10T03:01:16.849Z,7.40
2017-09-10T03:03:44.466Z,9.53
2017-09-10T03:06:12.087Z,4.40
2017-09-10T03:08:39.717Z,4.20
2017-09-10T03:11:07.308Z,4.67
2017-09-10T03:13:34.935Z,5.60
2017-09-10T03:16:02.548Z,4.40
2017-09-10T03:18:30.912Z,3.93
2017-09-10T03:20:58.540Z,5.37
2017-09-10T03:23:26.147Z,3.50
2017-09-10T03:25:54.525Z,6.80
2017-09-10T03:28:22.888Z,3.80
2017-09-10T03:30:50.505Z,4.33
2017-09-10T03:33:18.096Z,3.13
2017-09-10T03:35:45.720Z,4.13
2017-09-10T03:38:13.303Z,6.93
2017-09-10T03:40:40.937Z,6.53
2017-09-10T03:43:08.537Z,5.93
2017-09-10T03:45:36.153Z,3.57
2017-09-10T03:48:03.753Z,5.43
2017-09-10T03:50:31.372Z,5.20
2017-09-10T03:52:58.963Z,4.37
2017-09-10T03:55:26.601Z,5.83
2017-09-10T03:57:54.187Z,5.57
2017-09-10T04:00:21.798Z,5.03
2017-09-10T04:02:50.159Z,6.40
2017-09-10T04:05:18.552Z,7.00
2017-09-10T04:07:46.160Z,5.20
2017-09-10T04:10:13.795Z,6.00
2017-09-10T04:12:41.388Z,3.53
2017-09-10T04:15:08.984Z,4.40
2017-09-10T04:17:37.371Z,4.23
2017-09-10T04:20:05.736Z,5.30
2017-09-10T04:22:34.160Z,6.33
2017-09-10T04:25:01.765Z,4.80
2017-09-10T04:27:29.394Z,4.73
2017-09-10T04:29:57.036Z,3.67
2017-09-10T04:32:24.664Z,6.10
2017-09-10T04:34:52.262Z,5.60
2017-09-10T04:37:19.884Z,10.03
2017-09-10T04:39:47.481Z,6.00
2017-09-10T04:42:15.115Z,5.10
2017-09-10T04:44:43.481Z,5.60
2017-09-10T04:47:11.114Z,6.63
2017-09-10T04:49:38.714Z,7.83
2017-09-10T04:52:07.100Z,7.93
2017-09-10T04:54:34.759Z,7.93
2017-09-10T04:57:03.240Z,4.23
2017-09-10T04:59:31.620Z,7.37
2017-09-10T05:02:00.004Z,13.73
2017-09-10T05:04:28.398Z,9.77
2017-09-10T05:06:56.047Z,7.40
2017-09-10T05:09:24.432Z,6.83
2017-09-10T05:11:52.067Z,8.03
2017-09-10T05:14:20.484Z,4.90
2017-09-10T05:16:48.105Z,5.80
2017-09-10T05:19:15.752Z,4.10
2017-09-10T05:21:43.344Z,5.60
2017-09-10T05:24:11.721Z,4.90
2017-09-10T05:26:40.114Z,5.63
2017-09-10T05:29:07.750Z,6.20
2017-09-10T05:31:35.347Z,5.30
2017-09-10T05:34:02.976Z,5.97
2017-09-10T05:36:31.366Z,8.03
2017-09-10T05:38:59.782Z,7.17
2017-09-10T05:41:27.395Z,8.10
2017-09-10T05:43:55.024Z,6.30
2017-09-10T05:46:22.617Z,5.97
2017-09-10T05:48:51.018Z,4.93
2017-09-10T05:51:19.397Z,6.30
2017-09-10T05:53:47.793Z,6.47
2017-09-10T05:56:15.417Z,5.93
2017-09-10T05:58:43.035Z,6.27
2017-09-10T06:01:10.663Z,4.83
2017-09-10T06:03:39.034Z,9.20
2017-09-10T06:06:07.433Z,7.07
2017-09-10T06:08:35.049Z,9.30
2017-09-10T06:11:02.779Z,9.37
2017-09-10T06:13:30.411Z,8.83
2017-09-10T06:15:58.041Z,11.87
2017-09-10T06:18:25.654Z,12.30
2017-09-10T06:20:53.290Z,16.80
2017-09-10T06:23:21.639Z,13.27
2017-09-10T06:25:49.276Z,12.40
2017-09-10T06:28:16.889Z,11.60
2017-09-10T06:30:45.295Z,17.03
2017-09-10T06:33:12.945Z,10.57
2017-09-10T06:35:40.579Z,12.23
2017-09-10T06:38:08.963Z,12.27
2017-09-10T06:40:36.594Z,12.13
2017-09-10T06:43:04.219Z,14.07
2017-09-10T06:45:31.845Z,11.50
2017-09-10T06:48:00.222Z,12.10
2017-09-10T06:50:28.612Z,12.20
2017-09-10T06:52:56.209Z,7.60
2017-09-10T06:55:23.821Z,9.17
2017-09-10T06:57:52.239Z,8.93
2017-09-10T07:00:19.828Z,7.80
2017-09-10T07:02:47.457Z,6.37
2017-09-10T07:05:15.062Z,7.37
2017-09-10T07:07:42.687Z,9.53
2017-09-10T07:10:10.296Z,8.13
2017-09-10T07:12:38.685Z,9.60
2017-09-10T07:15:07.043Z,11.07
2017-09-10T07:17:34.670Z,9.07
2017-09-10T07:20:02.270Z,7.40
2017-09-10T07:22:30.696Z,6.43
2017-09-10T07:24:58.304Z,6.97
2017-09-10T07:27:25.940Z,9.87
2017-09-10T07:29:54.060Z,7.80
2017-09-10T07:32:22.459Z,7.10
2017-09-10T07:34:50.485Z,6.40
2017-09-10T07:37:18.094Z,6.60
2017-09-10T07:39:45.697Z,9.83
2017-09-10T07:42:13.334Z,7.37
2017-09-10T07:44:40.937Z,8.00
2017-09-10T07:47:09.303Z,7.87
2017-09-10T07:49:36.939Z,8.33
2017-09-10T07:52:04.567Z,6.87
2017-09-10T07:54:32.194Z,9.20
2017-09-10T07:56:59.799Z,7.70
2017-09-10T07:59:28.131Z,7.37
2017-09-10T08:01:55.786Z,9.27
2017-09-10T08:04:26.332Z,7.33
2017-09-10T08:06:53.933Z,7.97
2017-09-10T08:09:21.564Z,12.17
2017-09-10T08:11:49.942Z,9.07
2017-09-10T08:14:17.570Z,8.70
2017-09-10T08:16:45.292Z,11.93
2017-09-10T08:19:12.921Z,10.53
2017-09-10T08:21:41.403Z,9.77
2017-09-10T08:24:09.184Z,10.90
2017-09-10T08:26:37.555Z,11.60
2017-09-10T08:29:06.001Z,12.40
2017-09-10T08:31:33.596Z,15.70
2017-09-10T08:34:01.993Z,11.03
2017-09-10T08:36:29.613Z,13.77
2017-09-10T08:38:57.259Z,18.40
2017-09-10T08:41:24.867Z,13.60
2017-09-10T08:43:53.254Z,14.77
2017-09-10T08:46:20.890Z,14.13
2017-09-10T08:48:49.257Z,12.50
2017-09-10T08:51:16.903Z,14.23
2017-09-10T08:53:44.581Z,15.13
2017-09-10T08:56:12.204Z,14.60
2017-09-10T08:58:39.813Z,14.40
2017-09-10T09:01:08.212Z,17.90
2017-09-10T09:03:35.817Z,14.60
2017-09-10T09:06:03.469Z,14.17
2017-09-10T09:08:31.078Z,14.77
2017-09-10T09:10:59.470Z,14.97
2017-09-10T09:13:27.836Z,12.73
2017-09-10T09:15:56.255Z,14.20
2017-09-10T09:18:23.860Z,14.03
2017-09-10T09:20:51.490Z,14.87
2017-09-10T09:23:19.087Z,13.00
2017-09-10T09:25:47.494Z,12.67
2017-09-10T09:28:15.089Z,13.80
2017-09-10T09:30:42.714Z,12.40
2017-09-10T09:33:10.325Z,15.77
2017-09-10T09:35:37.939Z,11.53
2017-09-10T09:38:05.571Z,13.10
2017-09-10T09:40:33.573Z,15.80
2017-09-10T09:43:01.198Z,14.10
2017-09-10T09:45:28.802Z,14.97
2017-09-10T09:47:56.440Z,17.27
2017-09-10T09:50:24.068Z,14.73
2017-09-10T09:52:51.685Z,11.40
2017-09-10T09:55:19.293Z,14.10
2017-09-10T09:57:46.931Z,12.50
2017-09-10T10:00:14.533Z,13.10
2017-09-10T10:02:42.921Z,13.40
2017-09-10T10:05:11.280Z,15.83
2017-09-10T10:07:38.913Z,15.70
2017-09-10T10:10:06.516Z,13.77
2017-09-10T10:12:34.915Z,12.40
2017-09-10T10:15:02.558Z,12.90
2017-09-10T10:17:32.282Z,11.63
2017-09-10T10:19:59.888Z,15.87
2017-09-10T10:22:27.521Z,10.93
2017-09-10T10:24:55.133Z,13.40
2017-09-10T10:27:22.777Z,11.50
2017-09-10T10:29:50.391Z,12.00
2017-09-10T10:32:18.402Z,13.23
2017-09-10T10:34:46.026Z,11.63
2017-09-10T10:37:13.620Z,12.20
2017-09-10T10:39:41.262Z,11.50
2017-09-10T10:42:09.291Z,10.87
2017-09-10T10:44:37.674Z,15.30
2017-09-10T10:47:06.243Z,12.17
2017-09-10T10:49:33.860Z,12.50
2017-09-10T10:52:01.460Z,10.90
2017-09-10T10:54:29.083Z,9.30
2017-09-10T10:56:56.676Z,9.87
2017-09-10T10:59:24.296Z,8.90
2017-09-10T11:01:51.883Z,8.73
2017-09-10T11:04:19.537Z,10.27
2017-09-10T11:06:47.149Z,9.27
2017-09-10T11:09:15.538Z,9.63
2017-09-10T11:11:43.146Z,12.30
2017-09-10T11:14:10.776Z,9.10
2017-09-10T11:16:38.365Z,14.70
2017-09-10T11:19:06.012Z,9.70
2017-09-10T11:21:33.620Z,12.87
2017-09-10T11:24:01.986Z,9.37
2017-09-10T11:26:29.592Z,8.97
2017-09-10T11:28:57.218Z,7.27
2017-09-10T11:31:24.832Z,9.10
2017-09-10T11:33:52.452Z,7.10
2017-09-10T11:36:22.679Z,8.63
2017-09-10T11:38:50.632Z,8.20
2017-09-10T11:41:19.014Z,9.80
2017-09-10T11:43:47.371Z,9.90
2017-09-10T11:46:14.999Z,8.10
2017-09-10T11:48:42.593Z,7.60
2017-09-10T11:51:10.245Z,8.90
2017-09-10T11:53:39.835Z,8.03
2017-09-10T11:56:07.460Z,7.40
2017-09-10T11:58:35.059Z,8.50
2017-09-10T12:01:02.680Z,7.97
2017-09-10T12:03:33.511Z,9.10
2017-09-10T12:06:01.899Z,8.10
2017-09-10T12:08:30.256Z,10.30
2017-09-10T12:10:57.894Z,8.80
2017-09-10T12:13:25.498Z,9.47
2017-09-10T12:15:56.845Z,8.20
2017-09-10T12:18:24.469Z,8.53
2017-09-10T12:20:52.102Z,8.33
2017-09-10T12:23:19.753Z,9.10
2017-09-10T12:25:47.369Z,7.07
2017-09-10T12:28:14.986Z,7.53
2017-09-10T12:30:42.580Z,7.50
2017-09-10T12:33:10.290Z,7.30
2017-09-10T12:35:37.889Z,6.83
2017-09-10T12:38:05.518Z,7.10
2017-09-10T12:40:33.132Z,5.53
2017-09-10T12:43:01.654Z,6.37
2017-09-10T12:45:29.290Z,7.63
2017-09-10T12:47:57.675Z,4.90
2017-09-10T12:50:26.057Z,5.40
2017-09-10T12:52:54.451Z,6.53
2017-09-10T12:55:22.043Z,5.97
2017-09-10T12:57:49.661Z,6.50
2017-09-10T13:00:18.041Z,4.20
2017-09-10T13:02:46.449Z,5.10
2017-09-10T13:05:14.060Z,4.60
2017-09-10T13:07:42.460Z,5.30
2017-09-10T13:10:16.971Z,3.63
2017-09-10T13:12:50.674Z,3.30
2017-09-10T13:15:24.598Z,5.90
2017-09-10T13:17:59.113Z,3.50
2017-09-10T13:20:32.789Z,4.00
2017-09-10T13:23:06.668Z,6.87
2017-09-10T13:25:40.406Z,3.33
2017-09-10T13:28:08.029Z,3.37
2017-09-10T13:30:35.616Z,3.40
2017-09-10T13:33:04.353Z,2.83
2017-09-10T13:35:31.936Z,4.10
2017-09-10T13:37:59.561Z,4.30
2017-09-10T13:40:27.160Z,3.30
2017-09-10T13:42:54.757Z,3.60
2017-09-10T13:45:23.142Z,2.47
2017-09-10T13:47:51.539Z,3.43
2017-09-10T13:50:19.912Z,2.77
2017-09-10T13:52:47.531Z,2.97
2017-09-10T13:55:15.175Z,3.40
2017-09-10T13:57:42.894Z,3.07
2017-09-10T14:00:11.294Z,2.67
2017-09-10T14:02:38.906Z,2.60
2017-09-10T14:05:06.532Z,2.37
2017-09-10T14:07:34.133Z,2.30
2017-09-10T14:10:01.741Z,4.00
2017-09-10T14:12:29.357Z,2.37
2017-09-10T14:14:58.351Z,2.60
2017-09-10T14:17:25.968Z,2.30
2017-09-10T14:19:53.600Z,2.60
2017-09-10T14:22:21.224Z,3.20
2017-09-10T14:24:48.840Z,2.53
2017-09-10T14:27:16.437Z,3.63
2017-09-10T14:29:44.055Z,2.93
2017-09-10T14:32:11.737Z,3.37
2017-09-10T14:34:39.381Z,4.00
2017-09-10T14:37:07.033Z,3.00
2017-09-10T14:39:35.399Z,2.80
2017-09-10T14:42:03.785Z,3.20
2017-09-10T14:44:31.392Z,3.00
2017-09-10T14:46:59.032Z,3.63
2017-09-10T14:49:26.663Z,3.43
2017-09-10T14:51:55.032Z,2.67
2017-09-10T14:54:23.433Z,3.70
2017-09-10T14:56:51.057Z,2.60
2017-09-10T14:59:18.652Z,2.80
2017-09-10T15:01:46.286Z,2.60
2017-09-10T15:04:13.886Z,3.03
2017-09-10T15:06:41.504Z,2.57
2017-09-10T15:09:09.087Z,4.30
2017-09-10T15:11:36.872Z,2.60
2017-09-10T15:14:04.478Z,3.27
2017-09-10T15:16:32.100Z,2.70
2017-09-10T15:18:59.691Z,3.20
2017-09-10T15:21:27.286Z,2.60
2017-09-10T15:23:56.484Z,2.67
2017-09-10T15:26:25.207Z,4.93
2017-09-10T15:28:52.820Z,3.07
2017-09-10T15:31:20.888Z,2.97
2017-09-10T15:33:48.518Z,2.90
2017-09-10T15:36:16.145Z,3.37
2017-09-10T15:38:43.756Z,8.67
2017-09-10T15:41:11.352Z,2.77
2017-09-10T15:43:39.727Z,8.03
2017-09-10T15:46:08.095Z,3.20
2017-09-10T15:48:35.721Z,3.00
2017-09-10T15:51:03.307Z,4.90
2017-09-10T15:53:30.927Z,3.03
2017-09-10T15:55:58.534Z,3.27
2017-09-10T15:58:26.156Z,3.33
2017-09-10T16:00:53.776Z,3.13
2017-09-10T16:03:22.173Z,4.30
2017-09-10T16:05:49.774Z,2.87
2017-09-10T16:08:17.406Z,3.67
2017-09-10T16:10:45.024Z,3.03
2017-09-10T16:13:13.410Z,6.00
2017-09-10T16:15:41.799Z,3.00
2017-09-10T16:18:10.166Z,6.07
2017-09-10T16:20:38.548Z,4.30
2017-09-10T16:23:06.923Z,2.50
2017-09-10T16:25:35.423Z,2.60
2017-09-10T16:28:03.038Z,2.97
2017-09-10T16:30:30.647Z,5.00
2017-09-10T16:32:58.249Z,2.40
2017-09-10T16:35:25.877Z,3.17
2017-09-10T16:37:53.512Z,4.00
2017-09-10T16:40:21.905Z,2.60
2017-09-10T16:42:50.267Z,2.53
2017-09-10T16:45:18.654Z,5.63
2017-09-10T16:47:47.010Z,3.00
2017-09-10T16:50:15.425Z,2.70
2017-09-10T16:52:43.051Z,3.50
2017-09-10T16:55:10.666Z,3.00
2017-09-10T16:57:38.278Z,2.60
2017-09-10T17:00:06.676Z,2.70
2017-09-10T17:02:35.043Z,4.50
2017-09-10T17:05:03.442Z,2.43
2017-09-10T17:07:31.793Z,2.77
2017-09-10T17:10:00.185Z,2.63
2017-09-10T17:12:28.544Z,2.50
2017-09-10T17:14:56.153Z,2.63
2017-09-10T17:17:23.768Z,3.60
2017-09-10T17:19:51.365Z,2.97
2017-09-10T17:22:19.005Z,2.40
2017-09-10T17:24:47.370Z,4.17
2017-09-10T17:27:15.002Z,7.43
2017-09-10T17:29:42.588Z,6.30
2017-09-10T17:32:10.215Z,4.20
2017-09-10T17:34:37.810Z,3.30
2017-09-10T17:37:05.436Z,2.60
2017-09-10T17:39:33.826Z,2.07
2017-09-10T17:42:01.444Z,2.17
2017-09-10T17:44:29.821Z,2.90
2017-09-10T17:46:57.461Z,4.53
2017-09-10T17:49:25.817Z,4.47
2017-09-10T17:51:53.775Z,2.90
2017-09-10T17:54:21.465Z,3.17
2017-09-10T17:56:49.854Z,2.70
2017-09-10T17:59:18.228Z,2.27
2017-09-10T18:01:45.849Z,2.57
2017-09-10T18:04:13.489Z,2.50
2017-09-10T18:06:41.137Z,3.37
2017-09-10T18:09:08.757Z,2.13
2017-09-10T18:11:36.358Z,2.50
2017-09-10T18:14:04.014Z,2.40
2017-09-10T18:16:31.612Z,4.80
2017-09-10T18:18:59.232Z,3.57
2017-09-10T18:21:27.601Z,3.00
2017-09-10T18:23:55.976Z,2.90
2017-09-10T18:26:24.359Z,2.53
2017-09-10T18:28:52.753Z,3.00
2017-09-10T18:31:20.365Z,3.17
2017-09-10T18:33:47.989Z,6.40
2017-09-10T18:36:15.686Z,3.40
2017-09-10T18:38:43.316Z,3.43
2017-09-10T18:41:10.918Z,2.90
2017-09-10T18:43:38.586Z,5.50
2017-09-10T18:46:06.180Z,2.97
2017-09-10T18:48:33.810Z,6.03
2017-09-10T18:51:01.417Z,2.93
2017-09-10T18:53:29.077Z,3.20
2017-09-10T18:55:56.695Z,2.80
2017-09-10T18:58:24.306Z,4.97
2017-09-10T19:00:51.970Z,3.00
2017-09-10T19:03:19.580Z,2.80
2017-09-10T19:05:47.971Z,3.30
2017-09-10T19:08:15.577Z,3.57
2017-09-10T19:10:43.197Z,5.33
2017-09-10T19:13:11.553Z,3.60
2017-09-10T19:15:39.175Z,3.77
2017-09-10T19:18:06.794Z,3.30
2017-09-10T19:20:35.170Z,3.90
2017-09-10T19:23:03.524Z,4.33
2017-09-10T19:25:31.417Z,4.03
2017-09-10T19:27:59.817Z,3.23
2017-09-10T19:30:27.686Z,3.50
2017-09-10T19:32:55.298Z,3.47
2017-09-10T19:35:22.958Z,3.30
2017-09-10T19:37:50.550Z,3.30
2017-09-10T19:40:18.924Z,3.10
2017-09-10T19:42:46.544Z,3.73
2017-09-10T19:45:14.174Z,3.97
2017-09-10T19:47:41.795Z,3.07
2017-09-10T19:50:09.425Z,4.03
2017-09-10T19:52:37.026Z,3.97
2017-09-10T19:55:05.392Z,3.90
2017-09-10T19:57:33.022Z,3.60
2017-09-10T20:00:00.793Z,3.53
2017-09-10T20:02:28.476Z,4.60
2017-09-10T20:04:56.074Z,7.37
2017-09-10T20:07:23.714Z,3.40
2017-09-10T20:09:52.081Z,3.60
2017-09-10T20:12:19.712Z,3.67
2017-09-10T20:14:47.334Z,4.93
2017-09-10T20:17:14.964Z,3.87
2017-09-10T20:19:42.601Z,3.50
2017-09-10T20:22:10.236Z,3.60
2017-09-10T20:24:37.834Z,3.70
2017-09-10T20:27:05.452Z,4.50
2017-09-10T20:29:33.054Z,3.37
2017-09-10T20:32:00.696Z,5.67
2017-09-10T20:34:28.309Z,4.23
2017-09-10T20:36:56.685Z,8.00
2017-09-10T20:39:24.281Z,3.73
2017-09-10T20:41:51.902Z,5.00
2017-09-10T20:44:20.490Z,4.13
2017-09-10T20:46:48.152Z,6.83
2017-09-10T20:49:16.515Z,3.43
2017-09-10T20:51:44.121Z,3.83
2017-09-10T20:54:11.742Z,4.27
2017-09-10T20:56:40.129Z,5.80
2017-09-10T20:59:08.520Z,7.80
2017-09-10T21:01:36.137Z,4.57
2017-09-10T21:04:03.760Z,4.53
2017-09-10T21:06:31.350Z,3.83
2017-09-10T21:08:58.990Z,4.80
2017-09-10T21:11:26.621Z,3.63
2017-09-10T21:13:55.222Z,3.93
2017-09-10T21:16:22.812Z,4.00
2017-09-10T21:18:50.429Z,5.50
2017-09-10T21:21:18.062Z,5.00
2017-09-10T21:23:45.690Z,4.60
2017-09-10T21:26:13.280Z,4.43
2017-09-10T21:28:40.891Z,3.50
2017-09-10T21:31:08.483Z,3.43
2017-09-10T21:33:36.118Z,3.43
2017-09-10T21:36:03.715Z,3.40
2017-09-10T21:38:31.362Z,5.60
2017-09-10T21:40:58.960Z,5.23
2017-09-10T21:43:27.328Z,4.47
2017-09-10T21:45:55.748Z,6.07
2017-09-10T21:48:23.346Z,5.93
2017-09-10T21:50:50.964Z,5.83
2017-09-10T21:53:18.575Z,4.70
2017-09-10T21:55:46.981Z,6.03
2017-09-10T21:58:15.339Z,4.40
2017-09-10T22:00:42.955Z,8.70
2017-09-10T22:03:10.573Z,5.70
2017-09-10T22:05:38.988Z,4.73
2017-09-10T22:08:06.588Z,4.70
2017-09-10T22:10:34.216Z,5.33
2017-09-10T22:13:01.810Z,8.30
2017-09-10T22:15:29.433Z,5.70
2017-09-10T22:17:57.038Z,4.27
2017-09-10T22:20:24.655Z,4.43
2017-09-10T22:22:52.247Z,3.90
2017-09-10T22:25:19.893Z,3.73
2017-09-10T22:27:47.498Z,6.00
2017-09-10T22:30:15.117Z,3.50
2017-09-10T22:32:42.722Z,7.80
2017-09-10T22:35:11.131Z,3.80
2017-09-10T22:37:38.738Z,3.83
2017-09-10T22:40:06.330Z,5.73
2017-09-10T22:42:34.717Z,5.23
2017-09-10T22:45:02.330Z,4.37
2017-09-10T22:47:29.971Z,4.53
2017-09-10T22:49:57.612Z,5.23
2017-09-10T22:52:26.023Z,4.87
2017-09-10T22:54:53.631Z,7.90
2017-09-10T22:57:22.016Z,4.63
2017-09-10T22:59:49.639Z,5.47
2017-09-10T23:02:17.269Z,8.13
2017-09-10T23:16:45.513Z,5.50
2017-09-10T23:19:13.142Z,4.03
2017-09-10T23:21:41.514Z,6.67
2017-09-10T23:24:09.955Z,6.90
2017-09-10T23:26:37.557Z,4.77
2017-09-10T23:29:05.166Z,4.63
2017-09-10T23:31:32.766Z,5.10
2017-09-10T23:34:00.387Z,4.67
2017-09-10T23:36:27.967Z,3.47
2017-09-10T23:38:56.108Z,4.63
2017-09-10T23:41:23.705Z,5.37
2017-09-10T23:43:51.324Z,6.37
2017-09-10T23:46:19.682Z,4.53
2017-09-10T23:48:48.085Z,5.50
2017-09-10T23:51:15.676Z,5.40
2017-09-10T23:53:43.293Z,9.83
2017-09-10T23:56:11.679Z,8.13
2017-09-10T23:58:39.281Z,5.93
